Luke AFB, Arizona
Current Conditions -  °F | °C
As of 6:58 AM on Wednesday 26 Nov 2014 (Local Time) from KLUF Reporting Station
Clear Clear  
Wind Chill: 35°   Ceiling: Unl
Heat Index: 39°   Visibility: 10mi
Dew Point: 17°   Wind: 6mph
Humidity: 40%   Direction: 20°NNE
Pressure: 30.3"   Gusts: NA
Location:  33.53°N, 112.37°W
Report Text: KLUF 261358Z 02005KT 10SM CLR 04/M09 A3030 RMK AO2A SLP262 T00391086 $
Loading
Personal Weather Stations






























Interactive Weather Map New forecast layout! Learn more

10-Day Weather Forecast

Advertisements
Track Severe Weather on mobile